Time;durP1;ratioP1;P1;durP2;ratioP2;P2;SDS_P1;SDS_P2;PMS_P1;PMS_P2;Temp;Humidity;BMP_temperature;BMP_pressure;BME280_temperature;BME280_humidity;BME280_pressure;Samples;Min_cycle;Max_cycle;Signal;HPM_P1;HPM_P2
2023/04/22 00:01:17;;;;;;;11.63;5.68;;;;;;;13.55;45.82;99604.06;7739323;32;37132;-84
2023/04/22 00:05:33;;;;;;;10.93;5.53;;;;;;;13.60;45.93;99601.25;7742983;32;40037;-85
2023/04/22 00:09:49;;;;;;;8.25;5.10;;;;;;;13.79;46.37;99604.78;7737833;32;40887;-84
2023/04/22 00:14:05;;;;;;;14.90;5.50;;;;;;;13.67;46.33;99599.75;7742778;32;38882;-84
2023/04/22 00:18:22;;;;;;;10.10;5.25;;;;;;;13.84;45.34;99599.22;7765924;32;37056;-84
2023/04/22 00:22:38;;;;;;;7.57;4.97;;;;;;;14.01;45.26;99590.47;7765978;32;39121;-84
2023/04/22 00:26:54;;;;;;;14.07;6.47;;;;;;;13.70;45.39;99596.41;7743045;32;40137;-85
2023/04/22 00:31:11;;;;;;;15.20;6.32;;;;;;;13.45;47.98;99597.63;7738750;32;37988;-84
2023/04/22 00:35:27;;;;;;;11.77;6.78;;;;;;;13.26;48.84;99600.31;7751067;32;38002;-84
2023/04/22 00:39:44;;;;;;;11.35;6.20;;;;;;;13.27;49.67;99595.66;7738695;32;40131;-85
2023/04/22 00:44:00;;;;;;;11.48;5.80;;;;;;;13.35;49.03;99600.50;7740864;32;40660;-84
2023/04/22 00:48:17;;;;;;;8.60;5.12;;;;;;;13.22;48.32;99603.94;7764322;32;37850;-85
2023/04/22 00:52:33;;;;;;;9.90;5.53;;;;;;;13.43;47.16;99591.59;7765307;32;37151;-84
2023/04/22 00:56:50;;;;;;;8.65;5.40;;;;;;;13.37;47.11;99592.81;7754434;32;39556;-84
2023/04/22 01:01:06;;;;;;;10.23;5.45;;;;;;;13.55;46.70;99595.84;7738528;32;40739;-85
2023/04/22 01:05:24;;;;;;;9.18;5.32;;;;;;;13.43;46.74;99602.56;7750189;32;37762;-84
2023/04/22 01:09:40;;;;;;;11.35;5.50;;;;;;;13.37;46.20;99595.53;7752128;32;37658;-84
2023/04/22 01:13:57;;;;;;;11.05;5.55;;;;;;;13.46;45.98;99601.16;7740918;32;39388;-85
2023/04/22 01:18:14;;;;;;;9.20;4.90;;;;;;;13.78;45.62;99608.66;7765225;32;40182;-84
2023/04/22 01:22:35;;;;;;;12.95;5.40;;;;;;;13.72;45.84;99604.34;7760597;32;37643;-84
2023/04/22 01:26:52;;;;;;;8.90;4.93;;;;;;;13.60;45.58;99601.25;7738423;32;37668;-84
2023/04/22 01:31:08;;;;;;;10.15;5.47;;;;;;;13.48;45.54;99607.97;7738219;32;39175;-84
2023/04/22 01:35:25;;;;;;;9.65;5.03;;;;;;;13.58;45.08;99608.94;7758922;32;40757;-84
2023/04/22 01:39:41;;;;;;;9.82;5.12;;;;;;;13.71;44.87;99613.66;7764994;32;37834;-84
2023/04/22 01:43:59;;;;;;;12.35;4.87;;;;;;;13.81;44.39;99604.47;7750455;32;37725;-84
2023/04/22 01:48:15;;;;;;;8.25;4.55;;;;;;;13.54;45.08;99608.72;7738049;32;39291;-85
2023/04/22 01:52:31;;;;;;;9.85;4.82;;;;;;;13.44;44.93;99604.19;7740827;32;40060;-84
2023/04/22 01:56:54;;;;;;;10.32;4.90;;;;;;;13.54;44.50;99608.72;7763546;32;37954;-85
2023/04/22 02:01:11;;;;;;;8.93;4.68;;;;;;;13.37;44.10;99606.50;7764748;32;37186;-84
2023/04/22 02:05:28;;;;;;;6.93;4.78;;;;;;;13.45;43.65;99600.38;7754007;32;39269;-84
2023/04/22 02:09:44;;;;;;;7.07;4.78;;;;;;;13.56;43.72;99600.22;7764009;32;40582;-85
2023/04/22 02:14:03;;;;;;;9.50;4.90;;;;;;;13.58;44.06;99596.06;7751000;32;37020;-84
2023/04/22 02:18:19;;;;;;;11.18;4.90;;;;;;;13.34;44.35;99601.59;7737511;32;37209;-84
2023/04/22 02:22:36;;;;;;;8.18;4.20;;;;;;;13.50;44.19;99599.47;7740869;32;40059;-84
2023/04/22 02:26:52;;;;;;;9.07;4.85;;;;;;;13.43;43.55;99599.81;7764194;32;39645;-83
2023/04/22 02:31:09;;;;;;;10.00;4.82;;;;;;;13.60;43.66;99601.25;7761164;32;38084;-83
2023/04/22 02:35:25;;;;;;;9.27;4.70;;;;;;;13.46;43.93;99596.50;7736253;32;37907;-84
2023/04/22 02:39:41;;;;;;;8.65;4.70;;;;;;;13.30;44.60;99592.34;7736980;32;39378;-83
2023/04/22 02:43:58;;;;;;;10.35;4.90;;;;;;;13.25;44.55;99600.62;7756727;32;40882;-84
2023/04/22 02:48:14;;;;;;;9.27;4.97;;;;;;;13.43;44.37;99591.59;7744269;32;38638;-85
2023/04/22 02:52:32;;;;;;;8.15;4.50;;;;;;;13.36;44.43;99591.16;7747017;32;37727;-84
2023/04/22 02:56:48;;;;;;;11.40;4.87;;;;;;;13.60;43.10;99590.28;7763516;32;38935;-84
2023/04/22 03:01:04;;;;;;;10.23;4.80;;;;;;;13.42;44.29;99598.22;7761598;32;40046;-85
2023/04/22 03:05:21;;;;;;;8.50;5.18;;;;;;;13.14;44.54;99592.53;7753570;32;37892;-84
2023/04/22 03:09:37;;;;;;;14.57;5.10;;;;;;;13.00;44.12;99599.00;7763169;32;37134;-85
2023/04/22 03:13:54;;;;;;;9.73;4.35;;;;;;;13.18;41.87;99590.03;7743353;32;39155;-84
2023/04/22 03:18:11;;;;;;;8.10;4.85;;;;;;;13.12;42.03;99594.75;7735899;32;40042;-84
2023/04/22 03:22:27;;;;;;;12.20;5.10;;;;;;;12.93;44.60;99599.34;7745513;32;38766;-85
2023/04/22 03:26:43;;;;;;;8.82;4.80;;;;;;;12.90;45.40;99594.47;7762674;32;37185;-84
2023/04/22 03:31:00;;;;;;;6.97;4.18;;;;;;;12.84;45.63;99601.12;7752194;32;40001;-84
2023/04/22 03:35:16;;;;;;;9.60;4.57;;;;;;;13.06;44.64;99598.66;7762155;32;40805;-84
2023/04/22 03:39:32;;;;;;;8.35;4.62;;;;;;;12.98;44.65;99606.69;7760571;32;37652;-84
2023/04/22 03:43:49;;;;;;;8.98;5.30;;;;;;;12.92;44.64;99606.75;7735373;32;37955;-84
2023/04/22 03:48:05;;;;;;;9.35;5.00;;;;;;;12.62;44.96;99615.31;7737655;32;39522;-85
2023/04/22 03:52:21;;;;;;;9.55;4.53;;;;;;;12.84;44.28;99607.38;7739157;32;40061;-85
2023/04/22 03:56:38;;;;;;;9.82;4.70;;;;;;;12.77;44.58;99609.66;7739204;32;37880;-84
2023/04/22 04:00:54;;;;;;;8.57;4.87;;;;;;;12.74;44.26;99611.03;7747860;32;36961;-84
2023/04/22 04:05:10;;;;;;;12.40;5.30;;;;;;;12.71;44.78;99610.81;7739611;32;39977;-84
2023/04/22 04:09:27;;;;;;;9.15;5.55;;;;;;;12.64;44.57;99619.37;7739308;32;40953;-84
2023/04/22 04:13:43;;;;;;;8.48;5.20;;;;;;;12.57;45.34;99621.63;7765680;32;38703;-84
2023/04/22 04:18:00;;;;;;;10.57;4.72;;;;;;;12.58;45.44;99617.81;7766179;32;37859;-84
2023/04/22 04:22:17;;;;;;;7.40;4.75;;;;;;;12.70;45.41;99626.41;7753823;32;40011;-85
2023/04/22 04:26:33;;;;;;;8.73;5.32;;;;;;;12.62;46.10;99621.56;7738832;32;39997;-84
2023/04/22 04:30:52;;;;;;;12.20;5.75;;;;;;;12.57;46.61;99632.56;7746250;32;38054;-85
2023/04/22 04:35:11;;;;;;;9.30;5.40;;;;;;;12.49;47.43;99635.94;7765881;32;37695;-85
2023/04/22 04:39:28;;;;;;;9.90;5.70;;;;;;;12.47;47.84;99640.88;7764380;32;40101;-84
2023/04/22 04:43:45;;;;;;;9.88;5.32;;;;;;;12.32;48.34;99639.91;7738570;32;39691;-84
2023/04/22 04:48:01;;;;;;;9.13;6.18;;;;;;;12.17;49.07;99645.50;7738627;32;38736;-84
2023/04/22 04:52:18;;;;;;;9.80;5.68;;;;;;;12.44;48.73;99644.19;7744756;32;37785;-85
2023/04/22 04:56:34;;;;;;;10.70;5.90;;;;;;;12.24;49.43;99647.91;7738513;32;39167;-85
2023/04/22 05:00:50;;;;;;;11.60;7.00;;;;;;;12.10;50.18;99662.22;7744380;32;40955;-84
2023/04/22 05:05:07;;;;;;;10.55;6.65;;;;;;;12.12;50.31;99654.56;7764138;32;38715;-84
2023/04/22 05:09:24;;;;;;;14.63;6.50;;;;;;;11.99;50.50;99669.69;7739317;32;37871;-84
2023/04/22 05:13:40;;;;;;;14.77;6.47;;;;;;;12.17;50.33;99657.25;7754737;32;39804;-84
2023/04/22 05:17:56;;;;;;;10.07;6.20;;;;;;;12.17;50.66;99665.44;7748642;32;40796;-84
2023/04/22 05:22:13;;;;;;;10.25;5.90;;;;;;;12.21;50.10;99660.22;7738225;32;37990;-85
2023/04/22 05:26:29;;;;;;;12.20;7.12;;;;;;;12.22;50.10;99661.88;7744960;32;37204;-85
2023/04/22 05:30:45;;;;;;;12.23;6.90;;;;;;;12.40;49.94;99666.63;7765170;32;40095;-85
2023/04/22 05:35:02;;;;;;;11.27;6.57;;;;;;;11.98;51.78;99667.25;7755044;32;39860;-85
2023/04/22 05:39:19;;;;;;;11.40;6.62;;;;;;;12.32;51.25;99664.50;7736823;32;37806;-85
2023/04/22 05:43:36;;;;;;;12.30;6.75;;;;;;;12.59;50.51;99661.28;7737154;32;37902;-84
2023/04/22 05:47:52;;;;;;;13.62;5.93;;;;;;;12.79;49.91;99664.88;7738665;32;40081;-86
2023/04/22 05:52:08;;;;;;;10.35;6.55;;;;;;;12.94;48.91;99661.19;7737576;32;40013;-86
2023/04/22 05:56:25;;;;;;;11.93;6.30;;;;;;;13.14;48.67;99660.97;7737806;32;37879;-86
2023/04/22 06:00:41;;;;;;;11.82;6.10;;;;;;;13.39;48.41;99664.50;7737877;32;37879;-85
2023/04/22 06:04:57;;;;;;;18.08;6.07;;;;;;;13.63;47.82;99660.91;7736964;32;40320;-85
2023/04/22 06:09:15;;;;;;;11.15;5.65;;;;;;;13.49;48.93;99664.38;7735762;32;40044;-84
2023/04/22 06:13:31;;;;;;;12.65;6.15;;;;;;;13.40;48.98;99662.56;7763476;32;38692;-86
2023/04/22 06:17:48;;;;;;;12.10;5.35;;;;;;;13.93;47.74;99661.56;7763854;32;37933;-85
2023/04/22 06:22:04;;;;;;;13.27;5.65;;;;;;;13.88;47.58;99656.97;7764134;32;39900;-85
2023/04/22 06:26:21;;;;;;;15.73;6.10;;;;;;;14.22;47.42;99667.69;7764026;32;39994;-85
2023/04/22 06:30:37;;;;;;;9.77;5.62;;;;;;;14.50;46.21;99658.72;7763603;32;37825;-85
2023/04/22 06:34:53;;;;;;;15.60;5.40;;;;;;;14.07;46.45;99663.28;7764134;32;37937;-85
2023/04/22 06:39:10;;;;;;;9.15;5.45;;;;;;;14.41;45.49;99673.13;7764184;32;39576;-86
2023/04/22 06:43:26;;;;;;;10.05;5.32;;;;;;;14.69;45.35;99664.19;7764005;32;40797;-86
2023/04/22 06:47:42;;;;;;;9.77;5.35;;;;;;;15.18;44.33;99658.03;7763906;32;37954;-85
2023/04/22 06:51:59;;;;;;;9.82;5.00;;;;;;;14.96;44.45;99664.22;7763477;32;37034;-86
2023/04/22 06:56:15;;;;;;;9.77;4.70;;;;;;;15.52;44.51;99658.69;7763713;32;40143;-87
2023/04/22 07:00:32;;;;;;;10.70;5.10;;;;;;;15.55;40.94;99652.59;7763487;32;40805;-87
2023/04/22 07:04:48;;;;;;;8.60;4.90;;;;;;;15.81;41.17;99660.28;7763290;32;38396;-85
2023/04/22 07:09:04;;;;;;;10.35;4.93;;;;;;;15.77;39.74;99647.16;7762275;32;37645;-85
2023/04/22 07:13:21;;;;;;;9.63;4.93;;;;;;;15.87;39.16;99653.56;7761741;32;39302;-85
2023/04/22 07:17:37;;;;;;;9.25;4.50;;;;;;;16.19;38.92;99652.50;7762980;32;40735;-85
2023/04/22 07:21:54;;;;;;;7.85;4.68;;;;;;;16.12;37.53;99652.94;7764868;32;38162;-85
2023/04/22 07:26:10;;;;;;;8.98;5.07;;;;;;;16.61;37.18;99649.53;7766926;32;36981;-85
2023/04/22 07:30:26;;;;;;;13.20;5.05;;;;;;;16.15;37.99;99660.56;7761457;32;39538;-80
2023/04/22 07:34:43;;;;;;;8.45;4.85;;;;;;;16.49;38.03;99644.63;7743648;32;40752;-78
2023/04/22 07:38:59;;;;;;;8.18;4.28;;;;;;;17.01;38.73;99647.66;7739419;32;38022;-67
2023/04/22 07:43:16;;;;;;;8.05;4.15;;;;;;;17.47;40.18;99651.00;7739324;32;37113;-77
2023/04/22 07:47:33;;;;;;;7.80;4.22;;;;;;;18.16;38.59;99652.22;7741022;32;39345;-68
2023/04/22 07:51:51;;;;;;;8.65;4.05;;;;;;;18.45;36.78;99647.97;7745665;32;39992;-66
2023/04/22 07:56:07;;;;;;;11.65;4.78;;;;;;;18.65;34.63;99640.94;7739171;32;38681;-66
2023/04/22 08:00:23;;;;;;;9.25;4.28;;;;;;;18.92;35.06;99639.72;7739138;32;37221;-67
2023/04/22 08:04:40;;;;;;;10.10;4.15;;;;;;;18.94;32.52;99640.22;7739117;32;40127;-68
2023/04/22 08:08:56;;;;;;;6.95;4.25;;;;;;;19.25;31.64;99641.84;7738932;32;40085;-68
2023/04/22 08:13:13;;;;;;;8.73;4.03;;;;;;;19.87;29.96;99637.56;7747103;32;37871;-67
2023/04/22 08:17:31;;;;;;;6.87;3.85;;;;;;;19.35;30.41;99646.16;7747484;32;36007;-78
2023/04/22 08:21:47;;;;;;;13.45;4.20;;;;;;;19.76;28.92;99637.13;7738856;32;40140;-78
2023/04/22 08:26:04;;;;;;;8.88;4.37;;;;;;;20.18;30.95;99634.34;7738786;32;40197;-78
2023/04/22 08:30:20;;;;;;;7.70;4.07;;;;;;;20.16;30.07;99633.88;7737546;32;38570;-78
2023/04/22 08:34:37;;;;;;;8.07;4.03;;;;;;;20.71;29.07;99633.81;7737936;32;37866;-77
2023/04/22 08:38:54;;;;;;;6.97;3.67;;;;;;;20.69;25.76;99630.59;7738767;32;39547;-78
2023/04/22 08:43:11;;;;;;;8.35;4.00;;;;;;;20.98;25.20;99626.81;7744178;32;40756;-78
2023/04/22 08:47:27;;;;;;;8.57;3.87;;;;;;;20.69;24.20;99631.38;7739461;32;37902;-77
2023/04/22 08:51:44;;;;;;;9.40;3.72;;;;;;;20.96;23.59;99624.38;7756653;32;37780;-78
2023/04/22 08:56:01;;;;;;;7.07;3.90;;;;;;;20.83;22.26;99633.84;7765470;32;39239;-78
2023/04/22 09:00:18;;;;;;;7.05;3.45;;;;;;;21.48;23.48;99627.63;7764161;32;40802;-78
2023/04/22 09:04:35;;;;;;;9.65;3.97;;;;;;;21.76;22.48;99628.47;7760622;32;37819;-77
2023/04/22 09:08:51;;;;;;;5.20;3.28;;;;;;;21.71;21.93;99620.41;7738297;32;37897;-78
2023/04/22 09:13:09;;;;;;;6.80;3.42;;;;;;;21.68;22.24;99621.13;7738523;32;40066;-78
2023/04/22 09:17:33;;;;;;;5.60;3.00;;;;;;;22.09;20.49;99627.47;7737106;32;40807;-78
2023/04/22 09:21:49;;;;;;;6.95;3.67;;;;;;;21.82;20.65;99626.28;7737006;32;36770;-78
2023/04/22 09:26:09;;;;;;;9.05;3.80;;;;;;;21.42;22.97;99628.97;7738253;32;37236;-79
2023/04/22 09:30:30;;;;;;;9.68;3.90;;;;;;;21.88;22.01;99619.31;7738206;32;39303;-79
2023/04/22 09:34:57;;;;;;;8.45;3.90;;;;;;;22.02;22.28;99624.44;7737889;32;41538;-79
2023/04/22 09:39:13;;;;;;;8.68;4.18;;;;;;;21.59;21.25;99622.41;7738032;32;39528;-78
2023/04/22 09:43:31;;;;;;;7.25;3.42;;;;;;;22.27;21.48;99613.25;7737774;32;37350;-79
2023/04/22 09:47:47;;;;;;;6.10;3.50;;;;;;;22.57;22.23;99610.09;7751984;32;40222;-67
2023/04/22 09:52:04;;;;;;;8.02;3.70;;;;;;;22.35;21.96;99612.31;7761415;32;40032;-68
2023/04/22 09:56:22;;;;;;;10.68;4.00;;;;;;;22.63;23.49;99603.13;7764473;32;38695;-67
2023/04/22 10:00:43;;;;;;;8.75;4.00;;;;;;;22.61;22.35;99599.88;7764145;32;37141;-65
2023/04/22 10:05:00;;;;;;;7.43;3.92;;;;;;;23.31;23.87;99593.66;7762768;32;38919;-68
2023/04/22 10:09:19;;;;;;;10.88;4.18;;;;;;;23.45;21.83;99584.84;7762454;32;39688;-67
2023/04/22 10:13:35;;;;;;;9.73;3.50;;;;;;;23.22;20.90;99584.72;7763950;32;37975;-69
2023/04/22 10:17:53;;;;;;;7.30;3.50;;;;;;;23.77;23.32;99579.97;7764323;32;37986;-68
2023/04/22 10:22:10;;;;;;;6.85;3.30;;;;;;;23.11;20.64;99589.22;7764355;32;39174;-67
2023/04/22 10:26:49;;;;;;;5.55;3.28;;;;;;;24.08;20.77;99578.22;7763899;32;39850;-66
2023/04/22 10:31:21;;;;;;;11.30;3.40;;;;;;;23.89;19.81;99578.25;7763931;32;38062;-69
2023/04/22 10:35:37;;;;;;;6.37;3.40;;;;;;;23.57;19.97;99572.78;7763796;32;37902;-66
2023/04/22 10:40:12;;;;;;;9.40;3.30;;;;;;;22.74;20.56;99576.41;7763789;32;40113;-67
2023/04/22 10:44:44;;;;;;;4.75;2.97;;;;;;;23.86;20.11;99562.28;7763819;32;40758;-66
2023/04/22 10:49:16;;;;;;;7.78;3.30;;;;;;;24.24;17.74;99564.19;7763648;32;38517;-67
2023/04/22 10:53:36;;;;;;;6.60;3.47;;;;;;;24.44;18.91;99558.56;7762253;32;36742;-66
2023/04/22 10:57:53;;;;;;;7.65;3.60;;;;;;;24.81;18.49;99546.88;7766023;32;39389;-80
2023/04/22 11:02:10;;;;;;;6.28;3.12;;;;;;;24.42;17.06;99549.78;7756839;32;39984;-78
2023/04/22 11:06:29;;;;;;;7.07;3.22;;;;;;;24.40;18.59;99552.13;7765751;32;37852;-78
2023/04/22 11:10:47;;;;;;;10.45;3.35;;;;;;;24.94;18.07;99551.06;7766880;32;36854;-78
2023/04/22 11:15:18;;;;;;;6.40;3.40;;;;;;;25.28;16.99;99557.59;7766916;32;39195;-77
2023/04/22 11:19:35;;;;;;;7.93;2.95;;;;;;;25.91;16.05;99548.81;7766756;32;40806;-80
2023/04/22 11:23:52;;;;;;;7.93;3.20;;;;;;;25.60;15.50;99546.03;7766573;32;38723;-78
2023/04/22 11:28:09;;;;;;;10.75;3.30;;;;;;;24.92;16.70;99543.09;7765557;32;37729;-78
2023/04/22 11:32:26;;;;;;;6.80;2.95;;;;;;;23.95;17.80;99552.50;7766680;32;40222;-78
2023/04/22 11:36:45;;;;;;;8.82;3.85;;;;;;;23.51;20.52;99550.00;7766499;32;39673;-78
2023/04/22 11:41:03;;;;;;;7.37;3.47;;;;;;;23.55;22.09;99555.66;7747511;32;37992;-80
2023/04/22 11:45:20;;;;;;;8.38;3.80;;;;;;;23.11;21.17;99556.69;7751073;32;37181;-78
2023/04/22 11:49:37;;;;;;;7.53;3.97;;;;;;;22.41;20.78;99558.13;7743476;32;39420;-80
2023/04/22 11:53:56;;;;;;;6.03;3.40;;;;;;;22.29;21.72;99556.22;7740067;32;39807;-78
2023/04/22 11:58:18;;;;;;;7.53;3.50;;;;;;;22.40;21.79;99558.47;7739273;32;36909;-78
2023/04/22 12:02:35;;;;;;;8.18;4.05;;;;;;;22.33;21.38;99555.53;7739295;32;37035;-72
2023/04/22 12:06:51;;;;;;;9.23;3.95;;;;;;;22.13;21.22;99547.06;7741444;32;39399;-67
2023/04/22 12:11:09;;;;;;;10.88;3.20;;;;;;;22.38;21.26;99553.28;7753455;32;40089;-67
2023/04/22 12:15:25;;;;;;;13.38;3.83;;;;;;;22.65;21.44;99545.22;7743945;32;38805;-81
2023/04/22 12:19:46;;;;;;;8.93;3.60;;;;;;;22.79;20.82;99545.56;7763940;32;37907;-78
2023/04/22 12:24:09;;;;;;;8.13;3.42;;;;;;;22.68;19.36;99544.53;7766068;32;39688;-77
2023/04/22 12:28:25;;;;;;;6.18;3.47;;;;;;;23.00;20.71;99541.69;7751620;32;40104;-68
2023/04/22 12:32:41;;;;;;;10.73;5.15;;;;;;;23.51;20.68;99538.06;7766601;32;38103;-69
2023/04/22 12:36:58;;;;;;;6.75;3.20;;;;;;;24.70;19.83;99528.00;7745544;32;37092;-69
2023/04/22 12:41:15;;;;;;;6.90;3.37;;;;;;;25.32;20.32;99526.94;7738715;32;38100;-66
2023/04/22 12:45:31;;;;;;;8.20;3.10;;;;;;;26.09;17.51;99519.09;7738319;32;40874;-81
2023/04/22 12:49:48;;;;;;;5.53;2.90;;;;;;;26.61;15.91;99517.19;7739067;32;37923;-87
2023/04/22 12:54:04;;;;;;;8.23;3.40;;;;;;;26.34;15.78;99515.75;7738579;32;37795;-88
2023/04/22 12:58:20;;;;;;;7.57;3.55;;;;;;;26.14;16.46;99520.75;7739072;32;40352;-87
2023/04/22 13:02:37;;;;;;;6.47;3.37;;;;;;;26.35;17.45;99518.13;7739511;32;40329;-87
2023/04/22 13:06:55;;;;;;;9.50;3.58;;;;;;;25.49;16.46;99512.41;7747722;32;37942;-87
2023/04/22 13:11:11;;;;;;;8.50;3.40;;;;;;;25.21;16.80;99506.44;7742195;32;37032;-88
2023/04/22 13:15:28;;;;;;;5.07;3.35;;;;;;;24.88;18.38;99505.97;7740789;32;40188;-85
2023/04/22 13:19:46;;;;;;;7.57;3.37;;;;;;;24.62;18.80;99498.41;7740602;32;40264;-87
2023/04/22 13:24:02;;;;;;;7.97;3.25;;;;;;;24.45;17.86;99496.91;7738573;32;38567;-89
2023/04/22 13:28:19;;;;;;;5.68;3.35;;;;;;;24.23;18.08;99500.50;7738114;32;37019;-89
2023/04/22 13:32:35;;;;;;;7.57;3.60;;;;;;;23.43;18.54;99509.28;7738458;32;39391;-90
2023/04/22 13:36:51;;;;;;;14.07;5.82;;;;;;;23.65;19.37;99495.84;7738167;32;40014;-89
2023/04/22 13:41:08;;;;;;;11.43;4.87;;;;;;;23.79;18.88;99501.66;7738225;32;37823;-89
2023/04/22 13:45:25;;;;;;;8.68;3.45;;;;;;;23.83;18.80;99494.22;7738326;32;37875;-89
2023/04/22 13:49:41;;;;;;;7.53;4.32;;;;;;;23.65;18.82;99495.84;7738270;32;39279;-89
2023/04/22 13:53:58;;;;;;;10.02;3.45;;;;;;;23.96;19.20;99484.53;7737173;32;40795;-89
2023/04/22 13:58:14;;;;;;;8.73;3.30;;;;;;;23.69;18.61;99488.34;7736875;32;38511;-88
2023/04/22 14:02:30;;;;;;;6.22;3.72;;;;;;;23.50;19.23;99489.97;7738034;32;37110;-88
2023/04/22 14:06:47;;;;;;;12.55;3.83;;;;;;;23.70;19.49;99487.16;7738191;32;39283;-87
2023/04/22 14:11:05;;;;;;;13.88;5.07;;;;;;;23.63;20.40;99483.09;7737881;32;39991;-89
2023/04/22 14:15:21;;;;;;;5.95;3.42;;;;;;;23.42;19.41;99477.91;7737543;32;37864;-89
2023/04/22 14:19:38;;;;;;;12.93;3.85;;;;;;;22.79;19.88;99484.44;7737823;32;37166;-88
2023/04/22 14:23:55;;;;;;;9.15;3.90;;;;;;;23.39;19.36;99483.41;7737673;32;39422;-89
2023/04/22 14:28:12;;;;;;;12.32;3.95;;;;;;;23.31;20.32;99488.00;7737515;32;40783;-89
2023/04/22 14:32:29;;;;;;;10.13;3.65;;;;;;;23.37;20.45;99486.53;7736284;32;37786;-89
2023/04/22 14:36:45;;;;;;;5.65;3.30;;;;;;;22.65;19.25;99490.47;7737360;32;37029;-88
2023/04/22 14:41:02;;;;;;;6.57;3.40;;;;;;;23.32;19.18;99483.22;7737581;32;39301;-89
2023/04/22 14:45:18;;;;;;;7.12;3.50;;;;;;;23.35;18.48;99482.50;7737032;32;39697;-89
2023/04/22 14:49:35;;;;;;;7.55;3.65;;;;;;;23.79;18.27;99476.63;7736953;32;37983;-89
2023/04/22 14:53:51;;;;;;;9.55;3.45;;;;;;;23.99;19.13;99469.88;7736479;32;37848;-90
2023/04/22 14:58:08;;;;;;;12.35;3.50;;;;;;;24.32;20.34;99473.22;7736837;32;39990;-88
2023/04/22 15:02:24;;;;;;;8.15;3.40;;;;;;;23.72;18.97;99470.94;7736676;32;39705;-89
2023/04/22 15:06:41;;;;;;;8.80;3.60;;;;;;;23.83;18.28;99460.81;7736750;32;38805;-88
2023/04/22 15:10:58;;;;;;;7.47;3.37;;;;;;;23.78;18.07;99461.91;7736351;32;37102;-90
2023/04/22 15:15:16;;;;;;;8.90;3.53;;;;;;;23.91;18.53;99459.78;7736244;32;39595;-89
2023/04/22 15:19:33;;;;;;;7.87;3.67;;;;;;;24.00;18.54;99457.53;7736147;32;39971;-89
2023/04/22 15:23:49;;;;;;;7.20;3.17;;;;;;;24.36;17.98;99457.38;7736504;32;38175;-89
2023/04/22 15:28:05;;;;;;;8.75;3.55;;;;;;;24.94;18.46;99453.50;7735996;32;37107;-90
2023/04/22 15:32:22;;;;;;;7.50;3.58;;;;;;;24.54;18.40;99458.50;7735886;32;40292;-90
2023/04/22 15:36:38;;;;;;;12.30;3.60;;;;;;;24.36;17.41;99452.59;7735837;32;39842;-89
2023/04/22 15:40:54;;;;;;;6.00;3.37;;;;;;;24.46;17.89;99450.38;7734506;32;38452;-89
2023/04/22 15:45:11;;;;;;;7.72;3.37;;;;;;;24.21;18.20;99453.53;7738558;32;37032;-87
2023/04/22 15:49:27;;;;;;;9.43;3.70;;;;;;;24.66;18.46;99460.22;7739628;32;39565;-89
2023/04/22 15:53:47;;;;;;;6.45;3.92;;;;;;;25.12;17.89;99460.09;7739278;32;40217;-90
2023/04/22 15:58:03;;;;;;;9.73;4.32;;;;;;;24.61;17.60;99457.78;7739648;32;37917;-89
2023/04/22 16:02:20;;;;;;;6.50;3.78;;;;;;;25.19;18.00;99450.22;7739466;32;37267;-89
2023/04/22 16:06:37;;;;;;;8.82;4.22;;;;;;;25.02;17.71;99446.81;7739422;32;39989;-89
2023/04/22 16:10:53;;;;;;;6.43;3.62;;;;;;;25.30;17.44;99448.38;7739384;32;39923;-89
2023/04/22 16:15:10;;;;;;;10.40;3.42;;;;;;;24.93;17.63;99446.28;7739161;32;38063;-90
2023/04/22 16:19:26;;;;;;;9.35;3.70;;;;;;;24.89;17.97;99448.25;7739225;32;37872;-90
2023/04/22 16:23:44;;;;;;;6.95;3.35;;;;;;;24.95;17.76;99443.94;7737831;32;39337;-89
2023/04/22 16:28:00;;;;;;;6.28;3.50;;;;;;;24.89;18.53;99435.09;7743044;32;39745;-87
2023/04/22 16:32:16;;;;;;;5.65;3.67;;;;;;;24.92;18.50;99439.94;7757827;32;38693;-88
2023/04/22 16:36:33;;;;;;;8.18;3.92;;;;;;;24.97;18.30;99435.19;7737757;32;37036;-89
2023/04/22 16:40:52;;;;;;;6.65;3.58;;;;;;;25.03;17.82;99434.50;7740898;32;39314;-87
2023/04/22 16:45:09;;;;;;;8.45;3.35;;;;;;;24.74;19.15;99434.09;7742647;32;39944;-88
2023/04/22 16:49:25;;;;;;;10.70;4.03;;;;;;;24.74;18.42;99436.87;7760811;32;37972;-88
2023/04/22 16:53:42;;;;;;;7.12;4.05;;;;;;;24.68;19.30;99430.03;7747727;32;37513;-88
2023/04/22 16:58:01;;;;;;;7.87;3.53;;;;;;;24.49;19.58;99422.56;7739465;32;39909;-87
2023/04/22 17:02:18;;;;;;;8.55;3.67;;;;;;;24.55;19.80;99428.63;7740282;32;40098;-88
2023/04/22 17:06:34;;;;;;;7.40;3.17;;;;;;;24.76;19.90;99430.13;7739007;32;37684;-88
2023/04/22 17:10:55;;;;;;;7.28;3.83;;;;;;;25.66;18.52;99426.47;7747186;32;37618;-88
2023/04/22 17:15:11;;;;;;;10.85;4.90;;;;;;;25.97;18.58;99424.41;7765483;32;40059;-87
2023/04/22 17:19:27;;;;;;;10.90;5.47;;;;;;;25.53;18.67;99423.16;7741116;32;39983;-84
2023/04/22 17:23:44;;;;;;;8.20;4.93;;;;;;;24.92;20.09;99434.34;7740755;32;37850;-84
2023/04/22 17:28:00;;;;;;;20.17;4.82;;;;;;;24.50;20.21;99424.16;7765315;32;36988;-83
2023/04/22 17:32:18;;;;;;;11.50;4.72;;;;;;;24.04;20.92;99435.34;7764828;32;38424;-83
2023/04/22 17:36:37;;;;;;;8.55;4.75;;;;;;;23.60;21.51;99438.50;7775001;32;39842;-85
2023/04/22 17:40:55;;;;;;;9.93;4.82;;;;;;;23.04;22.73;99439.72;7764676;32;37512;-84
2023/04/22 17:45:12;;;;;;;16.55;4.72;;;;;;;22.64;23.26;99451.94;7763906;32;37840;-84
2023/04/22 17:49:30;;;;;;;15.30;5.60;;;;;;;22.29;23.70;99455.47;7765103;32;39291;-85
2023/04/22 17:53:47;;;;;;;9.15;5.50;;;;;;;21.89;24.43;99457.22;7751582;32;40961;-86
2023/04/22 17:58:03;;;;;;;12.35;5.65;;;;;;;21.56;26.55;99451.97;7748120;32;37807;-82
2023/04/22 18:02:23;;;;;;;12.30;5.90;;;;;;;21.37;27.62;99461.72;7751202;32;37126;-86
2023/04/22 18:06:42;;;;;;;16.95;5.62;;;;;;;20.90;28.55;99464.25;7761874;32;39383;-87
2023/04/22 18:10:58;;;;;;;14.32;8.48;;;;;;;20.55;27.45;99471.06;7748429;32;39986;-69
2023/04/22 18:15:18;;;;;;;12.63;5.87;;;;;;;20.35;26.51;99477.53;7748662;32;37012;-87
2023/04/22 18:19:36;;;;;;;16.50;7.75;;;;;;;20.19;27.10;99483.72;7746912;32;37218;-88
2023/04/22 18:23:53;;;;;;;13.30;5.93;;;;;;;20.07;28.55;99495.63;7747472;32;39648;-89
2023/04/22 18:28:09;;;;;;;10.43;5.43;;;;;;;19.78;30.10;99496.56;7744724;32;40698;-85
2023/04/22 18:32:29;;;;;;;10.30;5.40;;;;;;;19.63;29.41;99497.19;7748845;32;37564;-87
2023/04/22 18:36:46;;;;;;;13.27;5.07;;;;;;;19.20;30.08;99501.12;7744445;32;37107;-88
2023/04/22 18:41:04;;;;;;;11.35;5.18;;;;;;;18.91;30.41;99500.81;7735747;32;39343;-88
2023/04/22 18:45:21;;;;;;;12.77;8.00;;;;;;;18.84;30.56;99516.31;7759108;32;40027;-88
2023/04/22 18:49:41;;;;;;;16.20;8.90;;;;;;;18.67;30.59;99517.97;7756982;32;37993;-88
2023/04/22 18:53:58;;;;;;;23.77;6.40;;;;;;;18.57;31.57;99521.09;7736602;32;36785;-88
2023/04/22 18:58:21;;;;;;;14.48;6.93;;;;;;;18.48;32.39;99525.88;7749320;32;39892;-87
2023/04/22 19:02:56;;;;;;;13.98;6.20;;;;;;;18.52;32.01;99522.13;7738844;32;41231;-87
2023/04/22 19:07:17;;;;;;;11.00;6.07;;;;;;;18.05;32.08;99518.53;7738789;32;38533;-87
2023/04/22 19:11:43;;;;;;;15.85;9.70;;;;;;;17.97;32.29;99506.37;7736002;32;37856;-88
2023/04/22 19:15:59;;;;;;;13.88;8.10;;;;;;;17.63;32.04;99522.63;7753863;32;38955;-87
2023/04/22 19:20:16;;;;;;;13.00;6.97;;;;;;;17.69;32.45;99527.97;7761401;32;40765;-88
2023/04/22 19:24:34;;;;;;;12.37;6.22;;;;;;;17.68;32.97;99526.34;7745704;32;37084;-89
2023/04/22 19:28:51;;;;;;;13.10;5.72;;;;;;;17.84;33.35;99527.47;7749095;32;38046;-87
2023/04/22 19:33:07;;;;;;;12.30;6.30;;;;;;;17.65;34.00;99525.06;7739289;32;39298;-87
2023/04/22 19:37:25;;;;;;;10.50;5.60;;;;;;;17.62;34.40;99520.19;7752482;32;40636;-87
2023/04/22 19:41:43;;;;;;;10.50;6.10;;;;;;;17.17;34.97;99528.78;7765446;32;37892;-89
2023/04/22 19:45:59;;;;;;;9.55;5.87;;;;;;;17.13;35.30;99522.31;7744368;32;37298;-87
2023/04/22 19:50:18;;;;;;;11.15;5.65;;;;;;;17.19;35.46;99521.00;7746868;32;39158;-88
2023/04/22 19:54:38;;;;;;;12.57;6.57;;;;;;;17.11;35.58;99528.13;7751990;32;40129;-87
2023/04/22 19:58:54;;;;;;;14.32;6.28;;;;;;;16.96;36.10;99512.87;7745093;32;38273;-91
2023/04/22 20:03:14;;;;;;;11.02;6.18;;;;;;;16.92;36.31;99511.06;7747188;32;38340;-87